sensor_id;sensor_type;location;lat;lon;timestamp;P1;durP1;ratioP1;P2;durP2;ratioP2
32760;SDS011;19126;47.472;7.850;2023-07-08T00:03:11;13.15;;;6.63;;
32760;SDS011;19126;47.472;7.850;2023-07-08T00:05:39;14.88;;;6.32;;
32760;SDS011;19126;47.472;7.850;2023-07-08T00:08:07;13.10;;;6.15;;
32760;SDS011;19126;47.472;7.850;2023-07-08T00:10:37;20.58;;;7.32;;
32760;SDS011;19126;47.472;7.850;2023-07-08T00:13:05;17.85;;;5.97;;
32760;SDS011;19126;47.472;7.850;2023-07-08T00:15:35;18.55;;;5.68;;
32760;SDS011;19126;47.472;7.850;2023-07-08T00:18:08;12.80;;;6.60;;
32760;SDS011;19126;47.472;7.850;2023-07-08T00:20:41;18.40;;;6.25;;
32760;SDS011;19126;47.472;7.850;2023-07-08T00:23:11;16.23;;;6.15;;
32760;SDS011;19126;47.472;7.850;2023-07-08T00:25:38;18.90;;;6.40;;
32760;SDS011;19126;47.472;7.850;2023-07-08T00:28:08;15.82;;;6.47;;
32760;SDS011;19126;47.472;7.850;2023-07-08T00:30:37;17.80;;;6.15;;
32760;SDS011;19126;47.472;7.850;2023-07-08T00:33:05;20.63;;;6.15;;
32760;SDS011;19126;47.472;7.850;2023-07-08T00:35:35;14.70;;;5.70;;
32760;SDS011;19126;47.472;7.850;2023-07-08T00:38:09;14.63;;;6.72;;
32760;SDS011;19126;47.472;7.850;2023-07-08T00:40:48;19.25;;;6.20;;
32760;SDS011;19126;47.472;7.850;2023-07-08T00:43:19;18.77;;;6.00;;
32760;SDS011;19126;47.472;7.850;2023-07-08T00:46:08;9.95;;;5.35;;
32760;SDS011;19126;47.472;7.850;2023-07-08T00:48:46;13.50;;;5.70;;
32760;SDS011;19126;47.472;7.850;2023-07-08T00:51:16;15.50;;;6.30;;
32760;SDS011;19126;47.472;7.850;2023-07-08T00:53:45;10.70;;;5.93;;
32760;SDS011;19126;47.472;7.850;2023-07-08T00:56:15;22.40;;;6.30;;
32760;SDS011;19126;47.472;7.850;2023-07-08T00:58:47;21.80;;;6.68;;
32760;SDS011;19126;47.472;7.850;2023-07-08T01:01:19;15.23;;;5.45;;
32760;SDS011;19126;47.472;7.850;2023-07-08T01:03:50;18.95;;;6.68;;
32760;SDS011;19126;47.472;7.850;2023-07-08T01:06:23;35.95;;;8.70;;
32760;SDS011;19126;47.472;7.850;2023-07-08T01:08:56;23.27;;;7.47;;
32760;SDS011;19126;47.472;7.850;2023-07-08T01:11:30;22.80;;;8.23;;
32760;SDS011;19126;47.472;7.850;2023-07-08T01:14:00;20.55;;;7.40;;
32760;SDS011;19126;47.472;7.850;2023-07-08T01:16:29;18.08;;;6.75;;
32760;SDS011;19126;47.472;7.850;2023-07-08T01:18:58;18.88;;;6.65;;
32760;SDS011;19126;47.472;7.850;2023-07-08T01:21:29;30.38;;;9.35;;
32760;SDS011;19126;47.472;7.850;2023-07-08T01:24:02;27.92;;;7.65;;
32760;SDS011;19126;47.472;7.850;2023-07-08T01:26:33;20.95;;;7.22;;
32760;SDS011;19126;47.472;7.850;2023-07-08T01:29:06;25.77;;;7.82;;
32760;SDS011;19126;47.472;7.850;2023-07-08T01:31:34;19.05;;;5.88;;
32760;SDS011;19126;47.472;7.850;2023-07-08T01:34:01;21.70;;;7.38;;
32760;SDS011;19126;47.472;7.850;2023-07-08T01:36:30;30.30;;;7.55;;
32760;SDS011;19126;47.472;7.850;2023-07-08T01:39:08;20.00;;;7.13;;
32760;SDS011;19126;47.472;7.850;2023-07-08T01:41:38;21.77;;;7.35;;
32760;SDS011;19126;47.472;7.850;2023-07-08T01:44:18;24.25;;;7.90;;
32760;SDS011;19126;47.472;7.850;2023-07-08T01:46:48;21.42;;;6.95;;
32760;SDS011;19126;47.472;7.850;2023-07-08T01:49:17;15.57;;;6.15;;
32760;SDS011;19126;47.472;7.850;2023-07-08T01:51:46;19.70;;;6.60;;
32760;SDS011;19126;47.472;7.850;2023-07-08T01:54:16;21.00;;;7.03;;
32760;SDS011;19126;47.472;7.850;2023-07-08T01:56:43;20.52;;;6.65;;
32760;SDS011;19126;47.472;7.850;2023-07-08T01:59:11;20.77;;;7.13;;
32760;SDS011;19126;47.472;7.850;2023-07-08T02:01:38;22.98;;;8.57;;
32760;SDS011;19126;47.472;7.850;2023-07-08T02:04:06;22.63;;;6.85;;
32760;SDS011;19126;47.472;7.850;2023-07-08T02:06:33;20.02;;;7.30;;
32760;SDS011;19126;47.472;7.850;2023-07-08T02:09:00;25.55;;;6.68;;
32760;SDS011;19126;47.472;7.850;2023-07-08T02:11:29;19.30;;;6.88;;
32760;SDS011;19126;47.472;7.850;2023-07-08T02:13:56;18.30;;;5.88;;
32760;SDS011;19126;47.472;7.850;2023-07-08T02:16:25;13.30;;;6.10;;
32760;SDS011;19126;47.472;7.850;2023-07-08T02:18:53;16.10;;;5.80;;
32760;SDS011;19126;47.472;7.850;2023-07-08T02:21:21;14.02;;;4.97;;
32760;SDS011;19126;47.472;7.850;2023-07-08T02:23:49;16.15;;;6.55;;
32760;SDS011;19126;47.472;7.850;2023-07-08T02:26:18;19.58;;;7.40;;
32760;SDS011;19126;47.472;7.850;2023-07-08T02:28:46;25.90;;;7.07;;
32760;SDS011;19126;47.472;7.850;2023-07-08T02:31:15;16.63;;;5.88;;
32760;SDS011;19126;47.472;7.850;2023-07-08T02:33:42;20.02;;;6.53;;
32760;SDS011;19126;47.472;7.850;2023-07-08T02:36:10;18.77;;;6.72;;
32760;SDS011;19126;47.472;7.850;2023-07-08T02:38:37;23.23;;;6.63;;
32760;SDS011;19126;47.472;7.850;2023-07-08T02:41:04;17.40;;;6.88;;
32760;SDS011;19126;47.472;7.850;2023-07-08T02:43:32;24.85;;;8.02;;
32760;SDS011;19126;47.472;7.850;2023-07-08T02:46:00;16.25;;;6.88;;
32760;SDS011;19126;47.472;7.850;2023-07-08T02:48:28;23.75;;;6.85;;
32760;SDS011;19126;47.472;7.850;2023-07-08T02:50:58;15.05;;;6.32;;
32760;SDS011;19126;47.472;7.850;2023-07-08T02:53:26;16.60;;;6.53;;
32760;SDS011;19126;47.472;7.850;2023-07-08T02:55:53;21.95;;;6.70;;
32760;SDS011;19126;47.472;7.850;2023-07-08T02:58:21;14.27;;;6.55;;
32760;SDS011;19126;47.472;7.850;2023-07-08T03:00:51;13.13;;;5.70;;
32760;SDS011;19126;47.472;7.850;2023-07-08T03:03:20;21.05;;;7.38;;
32760;SDS011;19126;47.472;7.850;2023-07-08T03:05:53;9.48;;;5.32;;
32760;SDS011;19126;47.472;7.850;2023-07-08T03:08:22;19.60;;;6.43;;
32760;SDS011;19126;47.472;7.850;2023-07-08T03:10:54;16.95;;;6.70;;
32760;SDS011;19126;47.472;7.850;2023-07-08T03:13:24;19.30;;;6.60;;
32760;SDS011;19126;47.472;7.850;2023-07-08T03:15:52;15.35;;;6.68;;
32760;SDS011;19126;47.472;7.850;2023-07-08T03:18:22;13.88;;;5.72;;
32760;SDS011;19126;47.472;7.850;2023-07-08T03:20:51;15.48;;;6.82;;
32760;SDS011;19126;47.472;7.850;2023-07-08T03:23:20;20.45;;;6.50;;
32760;SDS011;19126;47.472;7.850;2023-07-08T03:25:48;18.17;;;5.78;;
32760;SDS011;19126;47.472;7.850;2023-07-08T03:28:16;12.63;;;5.65;;
32760;SDS011;19126;47.472;7.850;2023-07-08T03:30:44;11.85;;;5.50;;
32760;SDS011;19126;47.472;7.850;2023-07-08T03:33:11;16.45;;;5.78;;
32760;SDS011;19126;47.472;7.850;2023-07-08T03:35:40;13.73;;;5.85;;
32760;SDS011;19126;47.472;7.850;2023-07-08T03:38:07;18.55;;;5.82;;
32760;SDS011;19126;47.472;7.850;2023-07-08T03:40:35;12.88;;;6.28;;
32760;SDS011;19126;47.472;7.850;2023-07-08T03:43:02;17.52;;;5.78;;
32760;SDS011;19126;47.472;7.850;2023-07-08T03:45:29;14.98;;;5.90;;
32760;SDS011;19126;47.472;7.850;2023-07-08T03:47:57;13.38;;;5.60;;
32760;SDS011;19126;47.472;7.850;2023-07-08T03:50:25;11.57;;;5.25;;
32760;SDS011;19126;47.472;7.850;2023-07-08T03:52:54;17.00;;;6.28;;
32760;SDS011;19126;47.472;7.850;2023-07-08T03:55:23;13.45;;;5.82;;
32760;SDS011;19126;47.472;7.850;2023-07-08T03:57:50;12.80;;;5.90;;
32760;SDS011;19126;47.472;7.850;2023-07-08T04:00:17;18.35;;;6.53;;
32760;SDS011;19126;47.472;7.850;2023-07-08T04:02:45;13.98;;;5.68;;
32760;SDS011;19126;47.472;7.850;2023-07-08T04:05:13;10.43;;;4.97;;
32760;SDS011;19126;47.472;7.850;2023-07-08T04:07:42;14.48;;;5.53;;
32760;SDS011;19126;47.472;7.850;2023-07-08T04:10:11;26.50;;;6.50;;
32760;SDS011;19126;47.472;7.850;2023-07-08T04:12:39;12.35;;;5.90;;
32760;SDS011;19126;47.472;7.850;2023-07-08T04:15:07;14.05;;;6.30;;
32760;SDS011;19126;47.472;7.850;2023-07-08T04:17:37;12.95;;;5.70;;
32760;SDS011;19126;47.472;7.850;2023-07-08T04:20:10;14.55;;;5.20;;
32760;SDS011;19126;47.472;7.850;2023-07-08T04:22:40;13.35;;;5.32;;
32760;SDS011;19126;47.472;7.850;2023-07-08T04:25:07;13.20;;;5.03;;
32760;SDS011;19126;47.472;7.850;2023-07-08T04:27:37;14.27;;;4.65;;
32760;SDS011;19126;47.472;7.850;2023-07-08T04:30:06;10.82;;;5.18;;
32760;SDS011;19126;47.472;7.850;2023-07-08T04:32:40;9.70;;;4.30;;
32760;SDS011;19126;47.472;7.850;2023-07-08T04:35:08;11.70;;;4.82;;
32760;SDS011;19126;47.472;7.850;2023-07-08T04:37:35;9.77;;;4.63;;
32760;SDS011;19126;47.472;7.850;2023-07-08T04:40:03;12.88;;;4.95;;
32760;SDS011;19126;47.472;7.850;2023-07-08T04:42:38;14.57;;;5.38;;
32760;SDS011;19126;47.472;7.850;2023-07-08T04:45:07;11.55;;;5.18;;
32760;SDS011;19126;47.472;7.850;2023-07-08T04:47:35;15.60;;;4.88;;
32760;SDS011;19126;47.472;7.850;2023-07-08T04:50:02;14.52;;;5.18;;
32760;SDS011;19126;47.472;7.850;2023-07-08T04:52:30;11.82;;;4.18;;
32760;SDS011;19126;47.472;7.850;2023-07-08T04:54:58;15.68;;;6.00;;
32760;SDS011;19126;47.472;7.850;2023-07-08T04:57:25;13.70;;;5.50;;
32760;SDS011;19126;47.472;7.850;2023-07-08T04:59:54;10.70;;;4.30;;
32760;SDS011;19126;47.472;7.850;2023-07-08T05:02:21;21.92;;;6.43;;
32760;SDS011;19126;47.472;7.850;2023-07-08T05:04:49;11.82;;;4.90;;
32760;SDS011;19126;47.472;7.850;2023-07-08T05:07:16;14.63;;;4.72;;
32760;SDS011;19126;47.472;7.850;2023-07-08T05:09:43;8.45;;;4.47;;
32760;SDS011;19126;47.472;7.850;2023-07-08T05:12:11;13.15;;;5.65;;
32760;SDS011;19126;47.472;7.850;2023-07-08T05:14:38;10.25;;;5.55;;
32760;SDS011;19126;47.472;7.850;2023-07-08T05:17:07;16.60;;;6.32;;
32760;SDS011;19126;47.472;7.850;2023-07-08T05:19:34;13.63;;;5.82;;
32760;SDS011;19126;47.472;7.850;2023-07-08T05:22:02;13.18;;;5.80;;
32760;SDS011;19126;47.472;7.850;2023-07-08T05:24:30;10.85;;;5.25;;
32760;SDS011;19126;47.472;7.850;2023-07-08T05:26:57;12.43;;;5.68;;
32760;SDS011;19126;47.472;7.850;2023-07-08T05:29:25;9.68;;;4.88;;
32760;SDS011;19126;47.472;7.850;2023-07-08T05:31:52;13.77;;;5.57;;
32760;SDS011;19126;47.472;7.850;2023-07-08T05:34:21;12.30;;;5.53;;
32760;SDS011;19126;47.472;7.850;2023-07-08T05:36:49;14.43;;;5.70;;
32760;SDS011;19126;47.472;7.850;2023-07-08T05:39:16;15.77;;;5.78;;
32760;SDS011;19126;47.472;7.850;2023-07-08T05:41:43;14.45;;;6.13;;
32760;SDS011;19126;47.472;7.850;2023-07-08T05:44:11;9.27;;;4.88;;
32760;SDS011;19126;47.472;7.850;2023-07-08T05:46:38;9.00;;;4.63;;
32760;SDS011;19126;47.472;7.850;2023-07-08T05:49:05;9.48;;;4.65;;
32760;SDS011;19126;47.472;7.850;2023-07-08T05:51:36;7.15;;;4.22;;
32760;SDS011;19126;47.472;7.850;2023-07-08T05:54:04;6.95;;;4.10;;
32760;SDS011;19126;47.472;7.850;2023-07-08T05:56:31;10.18;;;4.82;;
32760;SDS011;19126;47.472;7.850;2023-07-08T05:58:59;10.32;;;5.07;;
32760;SDS011;19126;47.472;7.850;2023-07-08T06:01:26;10.45;;;4.72;;
32760;SDS011;19126;47.472;7.850;2023-07-08T06:03:54;10.35;;;4.78;;
32760;SDS011;19126;47.472;7.850;2023-07-08T06:06:23;14.45;;;4.88;;
32760;SDS011;19126;47.472;7.850;2023-07-08T06:08:52;9.93;;;4.78;;
32760;SDS011;19126;47.472;7.850;2023-07-08T06:11:20;10.85;;;5.18;;
32760;SDS011;19126;47.472;7.850;2023-07-08T06:13:48;10.95;;;4.40;;
32760;SDS011;19126;47.472;7.850;2023-07-08T06:16:15;9.75;;;4.47;;
32760;SDS011;19126;47.472;7.850;2023-07-08T06:18:43;11.80;;;4.93;;
32760;SDS011;19126;47.472;7.850;2023-07-08T06:21:11;17.40;;;5.50;;
32760;SDS011;19126;47.472;7.850;2023-07-08T06:23:44;14.20;;;5.28;;
32760;SDS011;19126;47.472;7.850;2023-07-08T06:26:13;9.07;;;5.00;;
32760;SDS011;19126;47.472;7.850;2023-07-08T06:28:41;12.38;;;4.70;;
32760;SDS011;19126;47.472;7.850;2023-07-08T06:31:08;6.80;;;4.00;;
32760;SDS011;19126;47.472;7.850;2023-07-08T06:33:36;12.63;;;4.65;;
32760;SDS011;19126;47.472;7.850;2023-07-08T06:36:03;8.85;;;5.07;;
32760;SDS011;19126;47.472;7.850;2023-07-08T06:38:32;8.57;;;4.57;;
32760;SDS011;19126;47.472;7.850;2023-07-08T06:40:59;14.77;;;5.35;;
32760;SDS011;19126;47.472;7.850;2023-07-08T06:43:28;6.85;;;4.82;;
32760;SDS011;19126;47.472;7.850;2023-07-08T06:45:55;11.90;;;4.53;;
32760;SDS011;19126;47.472;7.850;2023-07-08T06:48:22;7.32;;;3.53;;
32760;SDS011;19126;47.472;7.850;2023-07-08T06:50:50;11.20;;;4.05;;
32760;SDS011;19126;47.472;7.850;2023-07-08T06:53:18;7.15;;;3.60;;
32760;SDS011;19126;47.472;7.850;2023-07-08T06:55:45;7.72;;;3.42;;
32760;SDS011;19126;47.472;7.850;2023-07-08T06:58:13;8.18;;;2.75;;
32760;SDS011;19126;47.472;7.850;2023-07-08T07:00:42;7.82;;;2.88;;
32760;SDS011;19126;47.472;7.850;2023-07-08T07:03:11;12.25;;;2.47;;
32760;SDS011;19126;47.472;7.850;2023-07-08T07:05:39;5.28;;;2.03;;
32760;SDS011;19126;47.472;7.850;2023-07-08T07:08:08;8.73;;;2.33;;
32760;SDS011;19126;47.472;7.850;2023-07-08T07:10:35;6.60;;;2.22;;
32760;SDS011;19126;47.472;7.850;2023-07-08T07:13:03;7.50;;;3.10;;
32760;SDS011;19126;47.472;7.850;2023-07-08T07:15:31;6.53;;;2.10;;
32760;SDS011;19126;47.472;7.850;2023-07-08T07:18:00;10.98;;;2.30;;
32760;SDS011;19126;47.472;7.850;2023-07-08T07:20:27;4.75;;;2.42;;
32760;SDS011;19126;47.472;7.850;2023-07-08T07:22:56;4.85;;;2.47;;
32760;SDS011;19126;47.472;7.850;2023-07-08T07:25:23;4.82;;;2.40;;
32760;SDS011;19126;47.472;7.850;2023-07-08T07:27:51;7.68;;;2.90;;
32760;SDS011;19126;47.472;7.850;2023-07-08T07:30:18;3.85;;;2.20;;
32760;SDS011;19126;47.472;7.850;2023-07-08T07:32:46;4.68;;;2.20;;
32760;SDS011;19126;47.472;7.850;2023-07-08T07:35:15;6.22;;;2.80;;
32760;SDS011;19126;47.472;7.850;2023-07-08T07:37:42;11.20;;;2.50;;
32760;SDS011;19126;47.472;7.850;2023-07-08T07:40:11;6.72;;;2.80;;
32760;SDS011;19126;47.472;7.850;2023-07-08T07:42:40;6.22;;;3.00;;
32760;SDS011;19126;47.472;7.850;2023-07-08T07:45:10;5.95;;;2.90;;
32760;SDS011;19126;47.472;7.850;2023-07-08T07:47:38;7.43;;;2.88;;
32760;SDS011;19126;47.472;7.850;2023-07-08T07:50:06;5.85;;;2.75;;
32760;SDS011;19126;47.472;7.850;2023-07-08T07:52:37;7.47;;;2.92;;
32760;SDS011;19126;47.472;7.850;2023-07-08T07:55:04;9.80;;;3.05;;
32760;SDS011;19126;47.472;7.850;2023-07-08T07:57:33;12.65;;;3.63;;
32760;SDS011;19126;47.472;7.850;2023-07-08T08:00:00;5.75;;;2.17;;
32760;SDS011;19126;47.472;7.850;2023-07-08T08:02:28;7.57;;;2.78;;
32760;SDS011;19126;47.472;7.850;2023-07-08T08:04:56;7.85;;;2.83;;
32760;SDS011;19126;47.472;7.850;2023-07-08T08:07:23;7.93;;;3.08;;
32760;SDS011;19126;47.472;7.850;2023-07-08T08:09:52;10.88;;;2.92;;
32760;SDS011;19126;47.472;7.850;2023-07-08T08:12:20;10.77;;;3.35;;
32760;SDS011;19126;47.472;7.850;2023-07-08T08:14:49;5.97;;;2.85;;
32760;SDS011;19126;47.472;7.850;2023-07-08T08:17:17;10.52;;;2.78;;
32760;SDS011;19126;47.472;7.850;2023-07-08T08:19:44;9.75;;;3.08;;
32760;SDS011;19126;47.472;7.850;2023-07-08T08:22:11;4.82;;;2.95;;
32760;SDS011;19126;47.472;7.850;2023-07-08T08:24:40;11.63;;;3.70;;
32760;SDS011;19126;47.472;7.850;2023-07-08T08:27:09;6.22;;;2.83;;
32760;SDS011;19126;47.472;7.850;2023-07-08T08:29:36;5.00;;;3.10;;
32760;SDS011;19126;47.472;7.850;2023-07-08T08:32:03;13.27;;;3.67;;
32760;SDS011;19126;47.472;7.850;2023-07-08T08:34:31;10.77;;;3.35;;
32760;SDS011;19126;47.472;7.850;2023-07-08T08:36:59;7.32;;;3.40;;
32760;SDS011;19126;47.472;7.850;2023-07-08T08:39:26;11.70;;;3.47;;
32760;SDS011;19126;47.472;7.850;2023-07-08T08:41:55;7.05;;;3.35;;
32760;SDS011;19126;47.472;7.850;2023-07-08T08:44:26;7.53;;;3.20;;
32760;SDS011;19126;47.472;7.850;2023-07-08T08:47:01;10.13;;;3.65;;
32760;SDS011;19126;47.472;7.850;2023-07-08T08:49:42;10.55;;;3.15;;
32760;SDS011;19126;47.472;7.850;2023-07-08T08:52:17;6.63;;;3.28;;
32760;SDS011;19126;47.472;7.850;2023-07-08T08:54:44;12.23;;;4.90;;
32760;SDS011;19126;47.472;7.850;2023-07-08T08:57:15;9.80;;;4.13;;
32760;SDS011;19126;47.472;7.850;2023-07-08T08:59:55;14.60;;;4.28;;
32760;SDS011;19126;47.472;7.850;2023-07-08T09:02:27;7.28;;;3.25;;
32760;SDS011;19126;47.472;7.850;2023-07-08T09:05:02;7.35;;;3.38;;
32760;SDS011;19126;47.472;7.850;2023-07-08T09:07:34;12.05;;;3.58;;
32760;SDS011;19126;47.472;7.850;2023-07-08T09:10:12;7.65;;;3.28;;
32760;SDS011;19126;47.472;7.850;2023-07-08T09:12:55;6.18;;;3.65;;
32760;SDS011;19126;47.472;7.850;2023-07-08T09:15:30;12.13;;;3.60;;
32760;SDS011;19126;47.472;7.850;2023-07-08T09:18:00;9.00;;;3.30;;
32760;SDS011;19126;47.472;7.850;2023-07-08T09:20:41;10.32;;;4.15;;
32760;SDS011;19126;47.472;7.850;2023-07-08T09:23:09;18.10;;;4.28;;
32760;SDS011;19126;47.472;7.850;2023-07-08T09:25:47;10.88;;;5.00;;
32760;SDS011;19126;47.472;7.850;2023-07-08T09:28:34;17.77;;;5.57;;
32760;SDS011;19126;47.472;7.850;2023-07-08T09:31:05;10.93;;;4.50;;
32760;SDS011;19126;47.472;7.850;2023-07-08T09:33:37;8.43;;;4.30;;
32760;SDS011;19126;47.472;7.850;2023-07-08T09:36:15;10.80;;;4.45;;
32760;SDS011;19126;47.472;7.850;2023-07-08T09:38:46;20.65;;;4.35;;
32760;SDS011;19126;47.472;7.850;2023-07-08T09:41:28;8.55;;;4.68;;
32760;SDS011;19126;47.472;7.850;2023-07-08T09:44:05;13.00;;;5.20;;
32760;SDS011;19126;47.472;7.850;2023-07-08T09:46:44;15.45;;;4.93;;
32760;SDS011;19126;47.472;7.850;2023-07-08T09:49:22;9.20;;;4.18;;
32760;SDS011;19126;47.472;7.850;2023-07-08T09:54:22;9.55;;;4.15;;
32760;SDS011;19126;47.472;7.850;2023-07-08T09:56:55;16.17;;;4.00;;
32760;SDS011;19126;47.472;7.850;2023-07-08T09:59:30;9.23;;;4.28;;
32760;SDS011;19126;47.472;7.850;2023-07-08T10:02:15;6.95;;;3.92;;
32760;SDS011;19126;47.472;7.850;2023-07-08T10:04:56;11.60;;;4.20;;
32760;SDS011;19126;47.472;7.850;2023-07-08T10:07:27;10.98;;;3.33;;
32760;SDS011;19126;47.472;7.850;2023-07-08T10:09:58;5.95;;;4.00;;
32760;SDS011;19126;47.472;7.850;2023-07-08T10:12:30;14.15;;;3.78;;
32760;SDS011;19126;47.472;7.850;2023-07-08T10:14:59;8.60;;;3.58;;
32760;SDS011;19126;47.472;7.850;2023-07-08T10:17:39;9.73;;;3.97;;
32760;SDS011;19126;47.472;7.850;2023-07-08T10:20:10;14.07;;;3.47;;
32760;SDS011;19126;47.472;7.850;2023-07-08T10:22:41;19.67;;;3.22;;
32760;SDS011;19126;47.472;7.850;2023-07-08T10:25:25;6.22;;;3.30;;
32760;SDS011;19126;47.472;7.850;2023-07-08T10:28:02;7.72;;;3.15;;
32760;SDS011;19126;47.472;7.850;2023-07-08T10:30:48;5.95;;;3.28;;
32760;SDS011;19126;47.472;7.850;2023-07-08T10:33:41;3.83;;;2.80;;
32760;SDS011;19126;47.472;7.850;2023-07-08T10:36:30;7.95;;;3.20;;
32760;SDS011;19126;47.472;7.850;2023-07-08T10:39:16;8.10;;;2.90;;
32760;SDS011;19126;47.472;7.850;2023-07-08T10:42:15;9.63;;;2.90;;
32760;SDS011;19126;47.472;7.850;2023-07-08T10:44:56;10.55;;;2.95;;
32760;SDS011;19126;47.472;7.850;2023-07-08T10:47:36;5.90;;;3.00;;
32760;SDS011;19126;47.472;7.850;2023-07-08T10:50:29;12.32;;;3.92;;
32760;SDS011;19126;47.472;7.850;2023-07-08T10:53:21;7.03;;;3.08;;
32760;SDS011;19126;47.472;7.850;2023-07-08T10:56:11;9.15;;;3.08;;
32760;SDS011;19126;47.472;7.850;2023-07-08T10:58:47;8.30;;;3.63;;
32760;SDS011;19126;47.472;7.850;2023-07-08T11:01:33;10.18;;;3.40;;
32760;SDS011;19126;47.472;7.850;2023-07-08T11:04:18;7.97;;;2.75;;
32760;SDS011;19126;47.472;7.850;2023-07-08T11:09:40;3.90;;;2.17;;
32760;SDS011;19126;47.472;7.850;2023-07-08T11:12:23;6.55;;;2.90;;
32760;SDS011;19126;47.472;7.850;2023-07-08T11:14:56;7.65;;;3.60;;
32760;SDS011;19126;47.472;7.850;2023-07-08T11:17:34;6.43;;;2.88;;
32760;SDS011;19126;47.472;7.850;2023-07-08T11:20:12;6.32;;;2.95;;
32760;SDS011;19126;47.472;7.850;2023-07-08T11:22:47;7.60;;;3.15;;
32760;SDS011;19126;47.472;7.850;2023-07-08T11:25:24;4.50;;;3.10;;
32760;SDS011;19126;47.472;7.850;2023-07-08T11:27:55;4.80;;;3.10;;
32760;SDS011;19126;47.472;7.850;2023-07-08T11:30:26;7.38;;;2.80;;
32760;SDS011;19126;47.472;7.850;2023-07-08T11:32:58;9.45;;;3.45;;
32760;SDS011;19126;47.472;7.850;2023-07-08T11:35:33;7.00;;;2.92;;
32760;SDS011;19126;47.472;7.850;2023-07-08T11:38:09;15.68;;;3.55;;
32760;SDS011;19126;47.472;7.850;2023-07-08T11:40:51;5.63;;;3.25;;
32760;SDS011;19126;47.472;7.850;2023-07-08T11:43:21;11.32;;;3.65;;
32760;SDS011;19126;47.472;7.850;2023-07-08T11:45:54;7.30;;;3.77;;
32760;SDS011;19126;47.472;7.850;2023-07-08T11:48:24;6.82;;;3.20;;
32760;SDS011;19126;47.472;7.850;2023-07-08T11:50:56;7.57;;;2.88;;
32760;SDS011;19126;47.472;7.850;2023-07-08T11:53:34;5.43;;;3.17;;
32760;SDS011;19126;47.472;7.850;2023-07-08T11:56:04;13.07;;;4.05;;
32760;SDS011;19126;47.472;7.850;2023-07-08T11:58:52;6.13;;;3.40;;
32760;SDS011;19126;47.472;7.850;2023-07-08T12:01:32;8.95;;;3.33;;
32760;SDS011;19126;47.472;7.850;2023-07-08T12:04:16;9.18;;;4.15;;
32760;SDS011;19126;47.472;7.850;2023-07-08T12:06:54;9.10;;;3.20;;
32760;SDS011;19126;47.472;7.850;2023-07-08T12:09:46;6.30;;;3.17;;
32760;SDS011;19126;47.472;7.850;2023-07-08T12:14:54;7.18;;;3.20;;
32760;SDS011;19126;47.472;7.850;2023-07-08T12:17:32;7.25;;;3.13;;
32760;SDS011;19126;47.472;7.850;2023-07-08T12:20:00;8.38;;;3.55;;
32760;SDS011;19126;47.472;7.850;2023-07-08T12:22:33;6.47;;;3.22;;
32760;SDS011;19126;47.472;7.850;2023-07-08T12:25:02;17.05;;;3.60;;
32760;SDS011;19126;47.472;7.850;2023-07-08T12:27:34;8.07;;;3.15;;
32760;SDS011;19126;47.472;7.850;2023-07-08T12:30:02;6.85;;;3.20;;
32760;SDS011;19126;47.472;7.850;2023-07-08T12:32:30;8.35;;;3.25;;
32760;SDS011;19126;47.472;7.850;2023-07-08T12:34:58;13.02;;;3.63;;
32760;SDS011;19126;47.472;7.850;2023-07-08T12:37:26;11.93;;;3.13;;
32760;SDS011;19126;47.472;7.850;2023-07-08T12:39:54;7.70;;;2.90;;
32760;SDS011;19126;47.472;7.850;2023-07-08T12:42:26;9.80;;;3.65;;
32760;SDS011;19126;47.472;7.850;2023-07-08T12:44:53;5.82;;;3.55;;
32760;SDS011;19126;47.472;7.850;2023-07-08T12:47:21;8.02;;;2.92;;
32760;SDS011;19126;47.472;7.850;2023-07-08T12:49:49;16.35;;;3.50;;
32760;SDS011;19126;47.472;7.850;2023-07-08T12:52:21;8.10;;;3.30;;
32760;SDS011;19126;47.472;7.850;2023-07-08T12:57:16;9.13;;;3.58;;
32760;SDS011;19126;47.472;7.850;2023-07-08T12:59:46;6.50;;;3.15;;
32760;SDS011;19126;47.472;7.850;2023-07-08T13:02:14;8.85;;;3.05;;
32760;SDS011;19126;47.472;7.850;2023-07-08T13:04:46;6.38;;;3.55;;
32760;SDS011;19126;47.472;7.850;2023-07-08T13:07:20;7.13;;;3.42;;
32760;SDS011;19126;47.472;7.850;2023-07-08T13:09:59;6.45;;;3.38;;
32760;SDS011;19126;47.472;7.850;2023-07-08T13:12:26;10.30;;;3.13;;
32760;SDS011;19126;47.472;7.850;2023-07-08T13:14:56;9.48;;;3.58;;
32760;SDS011;19126;47.472;7.850;2023-07-08T13:17:26;9.88;;;3.40;;
32760;SDS011;19126;47.472;7.850;2023-07-08T13:19:53;7.22;;;3.63;;
32760;SDS011;19126;47.472;7.850;2023-07-08T13:22:22;8.02;;;2.90;;
32760;SDS011;19126;47.472;7.850;2023-07-08T13:24:58;8.75;;;3.25;;
32760;SDS011;19126;47.472;7.850;2023-07-08T13:27:26;9.63;;;3.17;;
32760;SDS011;19126;47.472;7.850;2023-07-08T13:29:54;8.40;;;3.45;;
32760;SDS011;19126;47.472;7.850;2023-07-08T13:32:42;10.75;;;3.58;;
32760;SDS011;19126;47.472;7.850;2023-07-08T13:35:20;11.20;;;4.18;;
32760;SDS011;19126;47.472;7.850;2023-07-08T13:37:50;9.23;;;3.70;;
32760;SDS011;19126;47.472;7.850;2023-07-08T13:40:18;6.35;;;3.33;;
32760;SDS011;19126;47.472;7.850;2023-07-08T13:42:51;9.57;;;3.35;;
32760;SDS011;19126;47.472;7.850;2023-07-08T13:45:21;9.00;;;3.92;;
32760;SDS011;19126;47.472;7.850;2023-07-08T13:47:59;9.07;;;3.63;;
32760;SDS011;19126;47.472;7.850;2023-07-08T13:50:31;10.90;;;3.75;;
32760;SDS011;19126;47.472;7.850;2023-07-08T13:53:15;17.45;;;3.40;;
32760;SDS011;19126;47.472;7.850;2023-07-08T13:55:46;5.07;;;3.55;;
32760;SDS011;19126;47.472;7.850;2023-07-08T13:58:16;10.30;;;3.85;;
32760;SDS011;19126;47.472;7.850;2023-07-08T14:00:45;6.88;;;3.83;;
32760;SDS011;19126;47.472;7.850;2023-07-08T14:03:13;8.75;;;3.90;;
32760;SDS011;19126;47.472;7.850;2023-07-08T14:05:44;6.33;;;3.73;;
32760;SDS011;19126;47.472;7.850;2023-07-08T14:08:12;8.00;;;3.95;;
32760;SDS011;19126;47.472;7.850;2023-07-08T14:10:41;6.00;;;3.85;;
32760;SDS011;19126;47.472;7.850;2023-07-08T14:13:10;4.13;;;3.08;;
32760;SDS011;19126;47.472;7.850;2023-07-08T14:15:38;9.63;;;3.58;;
32760;SDS011;19126;47.472;7.850;2023-07-08T14:18:07;7.00;;;3.50;;
32760;SDS011;19126;47.472;7.850;2023-07-08T14:20:36;13.27;;;3.97;;
32760;SDS011;19126;47.472;7.850;2023-07-08T14:23:04;8.73;;;4.15;;
32760;SDS011;19126;47.472;7.850;2023-07-08T14:25:31;9.65;;;3.95;;
32760;SDS011;19126;47.472;7.850;2023-07-08T14:27:58;12.00;;;4.18;;
32760;SDS011;19126;47.472;7.850;2023-07-08T14:30:27;7.63;;;3.50;;
32760;SDS011;19126;47.472;7.850;2023-07-08T14:32:55;7.07;;;3.20;;
32760;SDS011;19126;47.472;7.850;2023-07-08T14:35:25;11.35;;;4.05;;
32760;SDS011;19126;47.472;7.850;2023-07-08T14:37:55;7.18;;;3.58;;
32760;SDS011;19126;47.472;7.850;2023-07-08T14:40:26;10.82;;;3.75;;
32760;SDS011;19126;47.472;7.850;2023-07-08T14:43:03;8.52;;;3.97;;
32760;SDS011;19126;47.472;7.850;2023-07-08T14:45:36;5.35;;;3.38;;
32760;SDS011;19126;47.472;7.850;2023-07-08T14:48:08;12.80;;;3.78;;
32760;SDS011;19126;47.472;7.850;2023-07-08T14:50:37;10.07;;;3.95;;
32760;SDS011;19126;47.472;7.850;2023-07-08T14:53:05;7.43;;;4.05;;
32760;SDS011;19126;47.472;7.850;2023-07-08T14:55:33;9.25;;;3.97;;
32760;SDS011;19126;47.472;7.850;2023-07-08T14:58:01;6.15;;;3.45;;
32760;SDS011;19126;47.472;7.850;2023-07-08T15:00:30;13.93;;;4.15;;
32760;SDS011;19126;47.472;7.850;2023-07-08T15:02:57;7.03;;;4.05;;
32760;SDS011;19126;47.472;7.850;2023-07-08T15:05:26;16.63;;;4.20;;
32760;SDS011;19126;47.472;7.850;2023-07-08T15:07:55;11.75;;;3.60;;
32760;SDS011;19126;47.472;7.850;2023-07-08T15:10:25;5.15;;;3.15;;
32760;SDS011;19126;47.472;7.850;2023-07-08T15:12:56;4.55;;;3.35;;
32760;SDS011;19126;47.472;7.850;2023-07-08T15:15:27;8.25;;;3.67;;